createdAt,value
2018-03-15T00:00:47.623Z,981.37
2018-03-15T00:01:47.613Z,981.26
2018-03-15T00:02:47.608Z,981.32
2018-03-15T00:03:47.597Z,981.21
2018-03-15T00:04:47.589Z,981.24
2018-03-15T00:05:47.582Z,981.18
2018-03-15T00:06:47.579Z,981.17
2018-03-15T00:07:47.565Z,981.19
2018-03-15T00:08:47.559Z,981.12
2018-03-15T00:09:47.548Z,981.19
2018-03-15T00:10:47.549Z,981.17
2018-03-15T00:11:47.536Z,981.16
2018-03-15T00:12:47.527Z,981.14
2018-03-15T00:13:47.518Z,981.14
2018-03-15T00:14:47.510Z,981.10
2018-03-15T00:15:47.502Z,981.10
2018-03-15T00:16:47.492Z,981.05
2018-03-15T00:17:47.483Z,981.10
2018-03-15T00:18:47.477Z,981.07
2018-03-15T00:19:47.471Z,981.08
2018-03-15T00:20:47.459Z,981.10
2018-03-15T00:21:47.453Z,981.08
2018-03-15T00:22:47.445Z,981.12
2018-03-15T00:23:47.437Z,981.08
2018-03-15T00:24:47.428Z,981.04
2018-03-15T00:25:47.420Z,981.06
2018-03-15T00:26:47.416Z,981.02
2018-03-15T00:27:47.416Z,981.04
2018-03-15T00:28:47.396Z,981.03
2018-03-15T00:29:47.389Z,981.02
2018-03-15T00:30:47.381Z,981.13
2018-03-15T00:31:47.373Z,981.05
2018-03-15T00:32:47.364Z,981.03
2018-03-15T00:33:47.356Z,981.08
2018-03-15T00:34:47.354Z,981.06
2018-03-15T00:35:47.342Z,981.11
2018-03-15T00:36:47.333Z,981.07
2018-03-15T00:37:47.322Z,981.12
2018-03-15T00:38:47.324Z,981.13
2018-03-15T00:39:47.366Z,981.13
2018-03-15T00:40:47.302Z,981.10
2018-03-15T00:41:47.294Z,981.14
2018-03-15T00:42:47.285Z,981.15
2018-03-15T00:43:47.277Z,981.10
2018-03-15T00:44:47.269Z,981.14
2018-03-15T00:45:47.259Z,981.16
2018-03-15T00:46:47.252Z,981.11
2018-03-15T00:47:47.248Z,981.13
2018-03-15T00:48:47.239Z,981.09
2018-03-15T00:49:47.227Z,981.05
2018-03-15T00:50:47.223Z,981.13
2018-03-15T00:51:47.221Z,981.10
2018-03-15T00:52:47.205Z,981.06
2018-03-15T00:53:47.198Z,981.06
2018-03-15T00:54:47.188Z,981.06
2018-03-15T00:55:47.180Z,981.10
2018-03-15T00:56:47.174Z,981.12
2018-03-15T00:57:47.171Z,981.12
2018-03-15T00:58:47.160Z,981.08
2018-03-15T00:59:47.147Z,981.08
2018-03-15T01:00:47.141Z,981.12
2018-03-15T01:01:47.133Z,981.13
2018-03-15T01:02:47.125Z,981.14
2018-03-15T01:03:47.114Z,981.16
2018-03-15T01:04:47.110Z,981.09
2018-03-15T01:05:47.102Z,981.13
2018-03-15T01:06:47.093Z,981.14
2018-03-15T01:07:47.084Z,981.24
2018-03-15T01:08:47.074Z,981.17
2018-03-15T01:09:47.083Z,981.18
2018-03-15T01:10:47.061Z,981.20
2018-03-15T01:11:47.055Z,981.20
2018-03-15T01:12:47.045Z,981.19
2018-03-15T01:13:47.035Z,981.18
2018-03-15T01:14:47.029Z,981.25
2018-03-15T01:15:47.028Z,981.20
2018-03-15T01:16:47.015Z,981.14
2018-03-15T01:17:47.005Z,981.12
2018-03-15T01:18:46.997Z,981.15
2018-03-15T01:19:46.987Z,981.18
2018-03-15T01:20:46.979Z,981.18
2018-03-15T01:21:46.982Z,981.18
2018-03-15T01:22:46.979Z,981.16
2018-03-15T01:23:46.956Z,981.21
2018-03-15T01:24:46.948Z,981.18
2018-03-15T01:25:46.939Z,981.20
2018-03-15T01:26:46.932Z,981.24
2018-03-15T01:27:46.929Z,981.19
2018-03-15T01:28:46.921Z,981.19
2018-03-15T01:29:46.908Z,981.16
2018-03-15T01:30:46.900Z,981.20
2018-03-15T01:31:46.891Z,981.12
2018-03-15T01:32:46.885Z,981.12
2018-03-15T01:33:46.879Z,981.17
2018-03-15T01:34:46.868Z,981.10
2018-03-15T01:35:46.863Z,981.06
2018-03-15T01:36:46.854Z,981.05
2018-03-15T01:37:46.840Z,981.04
2018-03-15T01:38:46.834Z,980.95
2018-03-15T01:39:46.829Z,980.93
2018-03-15T01:40:46.820Z,980.95
2018-03-15T01:41:46.810Z,980.91
2018-03-15T01:42:46.808Z,980.88
2018-03-15T01:43:46.790Z,980.88
2018-03-15T01:44:46.788Z,980.89
2018-03-15T01:45:46.788Z,980.83
2018-03-15T01:46:46.771Z,980.85
2018-03-15T01:47:46.765Z,980.81
2018-03-15T01:48:46.756Z,980.80
2018-03-15T01:49:46.754Z,980.76
2018-03-15T01:50:46.743Z,980.73
2018-03-15T01:51:46.733Z,980.64
2018-03-15T01:52:46.724Z,980.65
2018-03-15T01:53:46.713Z,980.61
2018-03-15T01:54:46.706Z,980.58
2018-03-15T01:55:46.703Z,980.61
2018-03-15T01:56:46.692Z,980.62
2018-03-15T01:57:46.682Z,980.62
2018-03-15T01:58:46.675Z,980.57
2018-03-15T01:59:46.665Z,980.59
2018-03-15T02:00:46.660Z,980.59
2018-03-15T02:01:46.655Z,980.55
2018-03-15T02:02:46.644Z,980.58
2018-03-15T02:03:46.636Z,980.59
2018-03-15T02:04:46.629Z,980.56
2018-03-15T02:05:46.620Z,980.55
2018-03-15T02:06:46.610Z,980.52
2018-03-15T02:07:46.607Z,980.51
2018-03-15T02:08:46.596Z,980.49
2018-03-15T02:09:46.594Z,980.47
2018-03-15T02:10:46.579Z,980.48
2018-03-15T02:11:46.571Z,980.38
2018-03-15T02:12:46.562Z,980.39
2018-03-15T02:13:46.557Z,980.37
2018-03-15T02:14:46.548Z,980.42
2018-03-15T02:15:46.539Z,980.46
2018-03-15T02:16:46.570Z,980.42
2018-03-15T02:17:46.521Z,980.44
2018-03-15T02:18:46.512Z,980.39
2018-03-15T02:19:46.515Z,980.38
2018-03-15T02:20:46.500Z,980.37
2018-03-15T02:21:46.490Z,980.40
2018-03-15T02:22:46.484Z,980.38
2018-03-15T02:23:46.477Z,980.36
2018-03-15T02:24:46.467Z,980.30
2018-03-15T02:25:46.461Z,980.33
2018-03-15T02:26:46.450Z,980.26
2018-03-15T02:27:46.443Z,980.20
2018-03-15T02:28:46.436Z,980.14
2018-03-15T02:29:46.429Z,980.18
2018-03-15T02:30:46.419Z,980.14
2018-03-15T02:31:46.413Z,980.06
2018-03-15T02:32:46.403Z,980.02
2018-03-15T02:33:46.397Z,979.99
2018-03-15T02:34:46.386Z,979.98
2018-03-15T02:35:46.380Z,979.97
2018-03-15T02:36:46.372Z,979.93
2018-03-15T02:37:46.363Z,979.94
2018-03-15T02:38:46.356Z,979.94
2018-03-15T02:39:46.346Z,979.93
2018-03-15T02:40:46.338Z,979.96
2018-03-15T02:41:46.328Z,979.94
2018-03-15T02:42:46.321Z,979.92
2018-03-15T02:43:46.316Z,979.92
2018-03-15T02:44:46.315Z,979.98
2018-03-15T02:45:46.300Z,979.93
2018-03-15T02:46:46.291Z,979.91
2018-03-15T02:47:46.283Z,979.84
2018-03-15T02:48:46.275Z,979.83
2018-03-15T02:49:46.266Z,979.80
2018-03-15T02:50:46.258Z,979.76
2018-03-15T02:51:46.250Z,979.70
2018-03-15T02:52:46.241Z,979.74
2018-03-15T02:53:46.245Z,979.74
2018-03-15T02:54:46.222Z,979.70
2018-03-15T02:55:46.218Z,979.65
2018-03-15T02:56:46.211Z,979.69
2018-03-15T02:57:46.203Z,979.67
2018-03-15T02:58:46.192Z,979.58
2018-03-15T02:59:46.191Z,979.61
2018-03-15T03:00:46.182Z,979.60
2018-03-15T03:01:46.202Z,979.67
2018-03-15T03:02:46.162Z,979.59
2018-03-15T03:03:46.153Z,979.59
2018-03-15T03:04:46.146Z,979.56
2018-03-15T03:05:46.139Z,979.57
2018-03-15T03:06:46.130Z,979.55
2018-03-15T03:07:46.120Z,979.53
2018-03-15T03:08:46.116Z,979.54
2018-03-15T03:09:46.168Z,979.54
2018-03-15T03:10:46.097Z,979.51
2018-03-15T03:11:46.090Z,979.53
2018-03-15T03:12:46.081Z,979.53
2018-03-15T03:13:46.073Z,979.54
2018-03-15T03:14:46.066Z,979.53
2018-03-15T03:15:46.055Z,979.51
2018-03-15T03:16:46.050Z,979.53
2018-03-15T03:17:46.041Z,979.52
2018-03-15T03:18:46.028Z,979.50
2018-03-15T03:19:46.025Z,979.47
2018-03-15T03:20:46.021Z,979.53
2018-03-15T03:21:46.017Z,979.53
2018-03-15T03:22:46.000Z,979.56
2018-03-15T03:23:45.992Z,979.52
2018-03-15T03:24:45.984Z,979.47
2018-03-15T03:25:45.975Z,979.51
2018-03-15T03:26:45.969Z,979.43
2018-03-15T03:27:45.959Z,979.47
2018-03-15T03:28:45.957Z,979.46
2018-03-15T03:29:45.944Z,979.44
2018-03-15T03:30:45.944Z,979.47
2018-03-15T03:31:45.965Z,979.45
2018-03-15T03:32:45.960Z,979.48
2018-03-15T03:33:45.917Z,979.51
2018-03-15T03:34:45.904Z,979.51
2018-03-15T03:35:45.925Z,979.44
2018-03-15T03:36:45.888Z,979.49
2018-03-15T03:37:45.882Z,979.52
2018-03-15T03:38:45.870Z,979.50
2018-03-15T03:39:45.861Z,979.52
2018-03-15T03:40:45.885Z,979.49
2018-03-15T03:41:45.848Z,979.51
2018-03-15T03:42:45.837Z,979.49
2018-03-15T03:43:45.829Z,979.49
2018-03-15T03:44:45.824Z,979.47
2018-03-15T03:45:45.820Z,979.50
2018-03-15T03:46:45.806Z,979.50
2018-03-15T03:47:45.799Z,979.50
2018-03-15T03:48:45.792Z,979.51
2018-03-15T03:49:45.784Z,979.52
2018-03-15T03:50:45.772Z,979.54
2018-03-15T03:51:45.768Z,979.52
2018-03-15T03:52:45.758Z,979.53
2018-03-15T03:53:45.752Z,979.54
2018-03-15T03:54:45.742Z,979.47
2018-03-15T03:55:45.734Z,979.51
2018-03-15T03:56:45.724Z,979.49
2018-03-15T03:57:45.721Z,979.53
2018-03-15T03:58:45.706Z,979.51
2018-03-15T03:59:45.703Z,979.56
2018-03-15T04:00:45.699Z,979.50
2018-03-15T04:01:45.684Z,979.52
2018-03-15T04:02:45.678Z,979.51
2018-03-15T04:03:45.669Z,979.42
2018-03-15T04:04:45.659Z,979.41
2018-03-15T04:05:45.655Z,979.37
2018-03-15T04:06:45.644Z,979.36
2018-03-15T04:07:45.636Z,979.38
2018-03-15T04:08:45.628Z,979.32
2018-03-15T04:09:45.625Z,979.32
2018-03-15T04:10:45.608Z,979.36
2018-03-15T04:11:45.603Z,979.30
2018-03-15T04:12:45.601Z,979.29
2018-03-15T04:13:45.595Z,979.27
2018-03-15T04:14:45.580Z,979.24
2018-03-15T04:15:45.600Z,979.19
2018-03-15T04:16:45.563Z,979.17
2018-03-15T04:17:45.557Z,979.13
2018-03-15T04:18:45.546Z,979.06
2018-03-15T04:19:45.539Z,979.05
2018-03-15T04:20:45.540Z,979.03
2018-03-15T04:21:45.524Z,979.01
2018-03-15T04:22:45.517Z,978.95
2018-03-15T04:23:45.509Z,978.95
2018-03-15T04:24:45.502Z,978.92
2018-03-15T04:25:45.503Z,978.88
2018-03-15T04:26:45.483Z,978.79
2018-03-15T04:27:45.477Z,978.79
2018-03-15T04:28:45.470Z,978.76
2018-03-15T04:29:45.460Z,978.73
2018-03-15T04:30:45.454Z,978.70
2018-03-15T04:31:45.451Z,978.65
2018-03-15T04:32:45.444Z,978.67
2018-03-15T04:33:45.432Z,978.65
2018-03-15T04:34:45.421Z,978.59
2018-03-15T04:35:45.413Z,978.58
2018-03-15T04:36:45.405Z,978.58
2018-03-15T04:37:45.404Z,978.58
2018-03-15T04:38:45.390Z,978.51
2018-03-15T04:39:45.383Z,978.46
2018-03-15T04:40:45.376Z,978.42
2018-03-15T04:41:45.364Z,978.37
2018-03-15T04:42:45.362Z,978.35
2018-03-15T04:43:45.354Z,978.24
2018-03-15T04:44:45.343Z,978.21
2018-03-15T04:45:45.336Z,978.13
2018-03-15T04:46:45.334Z,978.03
2018-03-15T04:47:45.320Z,978.00
2018-03-15T04:48:45.315Z,977.90
2018-03-15T04:49:45.310Z,977.99
2018-03-15T04:50:45.295Z,977.88
2018-03-15T04:51:45.287Z,977.95
2018-03-15T04:52:45.279Z,977.91
2018-03-15T04:53:45.274Z,977.99
2018-03-15T04:54:45.265Z,977.96
2018-03-15T04:55:45.254Z,977.98
2018-03-15T04:56:45.251Z,977.88
2018-03-15T04:57:45.239Z,978.01
2018-03-15T04:58:45.232Z,977.96
2018-03-15T04:59:45.225Z,977.98
2018-03-15T05:00:45.223Z,978.03
2018-03-15T05:01:45.217Z,978.12
2018-03-15T05:02:45.202Z,978.14
2018-03-15T05:03:45.192Z,978.21
2018-03-15T05:04:45.184Z,978.22
2018-03-15T05:05:45.222Z,978.21
2018-03-15T05:06:45.170Z,978.26
2018-03-15T05:07:45.163Z,978.28
2018-03-15T05:08:45.155Z,978.27
2018-03-15T05:09:45.144Z,978.23
2018-03-15T05:10:45.135Z,978.28
2018-03-15T05:11:45.128Z,978.29
2018-03-15T05:12:45.126Z,978.18
2018-03-15T05:13:45.113Z,978.15
2018-03-15T05:14:45.102Z,978.11
2018-03-15T05:15:45.096Z,978.09
2018-03-15T05:16:45.087Z,978.03
2018-03-15T05:17:45.082Z,977.99
2018-03-15T05:18:45.074Z,977.95
2018-03-15T05:19:45.065Z,977.95
2018-03-15T05:20:45.067Z,977.87
2018-03-15T05:21:45.047Z,977.82
2018-03-15T05:22:45.036Z,977.88
2018-03-15T05:23:45.030Z,977.85
2018-03-15T05:24:45.024Z,977.80
2018-03-15T05:25:45.016Z,977.81
2018-03-15T05:26:45.008Z,977.82
2018-03-15T05:27:44.998Z,977.77
2018-03-15T05:28:44.992Z,977.78
2018-03-15T05:29:44.984Z,977.80
2018-03-15T05:30:44.976Z,977.77
2018-03-15T05:31:44.968Z,977.81
2018-03-15T05:32:44.960Z,977.80
2018-03-15T05:33:44.951Z,977.85
2018-03-15T05:34:44.944Z,977.83
2018-03-15T05:35:44.934Z,977.84
2018-03-15T05:36:44.933Z,977.85
2018-03-15T05:37:44.926Z,977.88
2018-03-15T05:38:44.911Z,977.86
2018-03-15T05:39:44.904Z,977.88
2018-03-15T05:40:44.896Z,977.85
2018-03-15T05:41:44.887Z,977.79
2018-03-15T05:42:44.881Z,977.84
2018-03-15T05:43:44.872Z,977.87
2018-03-15T05:44:44.863Z,977.84
2018-03-15T05:45:44.853Z,977.76
2018-03-15T05:46:44.861Z,977.78
2018-03-15T05:47:44.840Z,977.69
2018-03-15T05:48:44.833Z,977.71
2018-03-15T05:49:44.823Z,977.73
2018-03-15T05:50:44.816Z,977.63
2018-03-15T05:51:44.808Z,977.51
2018-03-15T05:52:44.804Z,977.51
2018-03-15T05:53:44.794Z,977.44
2018-03-15T05:54:44.784Z,977.38
2018-03-15T05:55:44.779Z,977.41
2018-03-15T05:56:44.766Z,977.29
2018-03-15T05:57:44.760Z,977.26
2018-03-15T05:58:44.756Z,977.23
2018-03-15T05:59:44.744Z,977.19
2018-03-15T06:00:44.736Z,977.19
2018-03-15T06:01:44.730Z,977.17
2018-03-15T06:02:44.721Z,977.14
2018-03-15T06:03:44.710Z,977.08
2018-03-15T06:04:44.707Z,977.03
2018-03-15T06:05:44.701Z,977.03
2018-03-15T06:06:44.688Z,977.04
2018-03-15T06:07:44.683Z,977.09
2018-03-15T06:08:44.671Z,977.07
2018-03-15T06:09:44.666Z,977.09
2018-03-15T06:10:44.663Z,977.19
2018-03-15T06:11:44.651Z,977.22
2018-03-15T06:12:44.644Z,977.32
2018-03-15T06:13:44.636Z,977.34
2018-03-15T06:14:44.625Z,977.37
2018-03-15T06:15:44.619Z,977.43
2018-03-15T06:16:44.612Z,977.46
2018-03-15T06:17:44.600Z,977.42
2018-03-15T06:18:44.599Z,977.43
2018-03-15T06:19:44.587Z,977.41
2018-03-15T06:20:44.579Z,977.42
2018-03-15T06:21:44.573Z,977.45
2018-03-15T06:22:44.563Z,977.40
2018-03-15T06:23:44.564Z,977.41
2018-03-15T06:24:44.548Z,977.35
2018-03-15T06:25:44.541Z,977.32
2018-03-15T06:26:44.532Z,977.25
2018-03-15T06:27:44.523Z,977.35
2018-03-15T06:28:44.513Z,977.31
2018-03-15T06:29:44.515Z,977.34
2018-03-15T06:30:44.506Z,977.27
2018-03-15T06:31:44.491Z,977.23
2018-03-15T06:32:44.484Z,977.20
2018-03-15T06:33:44.476Z,977.16
2018-03-15T06:34:44.468Z,977.15
2018-03-15T06:35:44.466Z,977.03
2018-03-15T06:36:44.452Z,976.97
2018-03-15T06:37:44.443Z,977.03
2018-03-15T06:38:44.440Z,976.99
2018-03-15T06:39:44.428Z,976.99
2018-03-15T06:40:44.420Z,977.01
2018-03-15T06:41:44.415Z,976.99
2018-03-15T06:42:44.409Z,976.95
2018-03-15T06:43:44.402Z,976.96
2018-03-15T06:44:44.390Z,976.82
2018-03-15T06:45:44.396Z,976.76
2018-03-15T06:46:44.373Z,976.78
2018-03-15T06:47:44.370Z,976.83
2018-03-15T06:48:44.360Z,976.84
2018-03-15T06:49:44.355Z,976.85
2018-03-15T06:50:44.342Z,977.01
2018-03-15T06:51:44.336Z,976.91
2018-03-15T06:52:44.321Z,976.98
2018-03-15T06:53:44.317Z,976.99
2018-03-15T06:54:44.312Z,976.99
2018-03-15T06:55:44.305Z,977.10
2018-03-15T06:56:44.297Z,977.10
2018-03-15T06:57:44.291Z,977.17
2018-03-15T06:58:44.281Z,977.19
2018-03-15T06:59:44.272Z,977.23
2018-03-15T07:00:44.266Z,977.16
2018-03-15T07:01:44.257Z,977.26
2018-03-15T07:02:44.250Z,977.31
2018-03-15T07:03:44.246Z,977.24
2018-03-15T07:04:44.234Z,977.30
2018-03-15T07:05:44.245Z,977.18
2018-03-15T07:06:44.232Z,977.25
2018-03-15T07:07:44.213Z,977.24
2018-03-15T07:08:44.212Z,977.36
2018-03-15T07:09:44.194Z,977.25
2018-03-15T07:10:44.187Z,977.27
2018-03-15T07:11:44.181Z,977.22
2018-03-15T07:12:44.176Z,977.20
2018-03-15T07:13:44.164Z,977.18
2018-03-15T07:14:44.157Z,977.20
2018-03-15T07:15:44.149Z,977.16
2018-03-15T07:16:44.142Z,977.21
2018-03-15T07:17:44.133Z,977.24
2018-03-15T07:18:44.127Z,977.20
2018-03-15T07:19:44.118Z,977.22
2018-03-15T07:20:44.112Z,977.28
2018-03-15T07:21:44.107Z,977.31
2018-03-15T07:22:44.103Z,977.34
2018-03-15T07:23:44.088Z,977.33
2018-03-15T07:24:44.081Z,977.33
2018-03-15T07:25:44.072Z,977.36
2018-03-15T07:26:44.066Z,977.39
2018-03-15T07:27:44.060Z,977.36
2018-03-15T07:28:44.050Z,977.39
2018-03-15T07:29:44.042Z,977.42
2018-03-15T07:30:44.038Z,977.42
2018-03-15T07:31:44.032Z,977.36
2018-03-15T07:32:44.020Z,977.38
2018-03-15T07:33:44.015Z,977.30
2018-03-15T07:34:44.005Z,977.34
2018-03-15T07:35:44.002Z,977.31
2018-03-15T07:36:43.990Z,977.33
2018-03-15T07:37:43.983Z,977.31
2018-03-15T07:38:43.974Z,977.36
2018-03-15T07:39:43.968Z,977.33
2018-03-15T07:40:43.965Z,977.33
2018-03-15T07:41:43.952Z,977.27
2018-03-15T07:42:43.944Z,977.33
2018-03-15T07:43:43.936Z,977.29
2018-03-15T07:44:43.929Z,977.29
2018-03-15T07:45:43.926Z,977.23
2018-03-15T07:46:43.916Z,977.23
2018-03-15T07:47:43.908Z,977.25
2018-03-15T07:48:43.897Z,977.26
2018-03-15T07:49:43.892Z,977.27
2018-03-15T07:50:43.886Z,977.32
2018-03-15T07:51:43.894Z,977.33
2018-03-15T07:52:43.874Z,977.31
2018-03-15T07:53:43.864Z,977.27
2018-03-15T07:54:43.858Z,977.28
2018-03-15T07:55:43.851Z,977.22
2018-03-15T07:56:43.846Z,977.17
2018-03-15T07:57:43.835Z,977.16
2018-03-15T07:58:43.829Z,977.16
2018-03-15T07:59:43.823Z,977.16
2018-03-15T08:00:43.815Z,977.12
2018-03-15T08:01:43.810Z,977.15
2018-03-15T08:02:43.799Z,977.14
2018-03-15T08:03:43.795Z,977.15
2018-03-15T08:04:43.785Z,977.13
2018-03-15T08:05:43.779Z,977.13
2018-03-15T08:06:43.771Z,977.13
2018-03-15T08:07:43.764Z,977.14
2018-03-15T08:08:43.757Z,977.21
2018-03-15T08:09:43.749Z,977.22
2018-03-15T08:10:43.743Z,977.28
2018-03-15T08:11:43.737Z,977.21
2018-03-15T08:12:43.732Z,977.18
2018-03-15T08:13:43.720Z,977.21
2018-03-15T08:14:43.718Z,977.20
2018-03-15T08:15:43.707Z,977.11
2018-03-15T08:16:43.699Z,977.12
2018-03-15T08:17:43.691Z,977.08
2018-03-15T08:18:43.689Z,977.09
2018-03-15T08:19:43.679Z,977.05
2018-03-15T08:20:43.672Z,977.08
2018-03-15T08:21:43.666Z,977.02
2018-03-15T08:22:43.656Z,976.99
2018-03-15T08:23:43.655Z,976.99
2018-03-15T08:24:43.642Z,976.93
2018-03-15T08:25:43.641Z,976.93
2018-03-15T08:26:43.630Z,976.90
2018-03-15T08:27:43.622Z,976.90
2018-03-15T08:28:43.616Z,976.92
2018-03-15T08:29:43.605Z,976.95
2018-03-15T08:30:43.598Z,976.93
2018-03-15T08:31:43.593Z,976.92
2018-03-15T08:32:43.593Z,976.89
2018-03-15T08:33:43.579Z,976.88
2018-03-15T08:34:43.570Z,976.88
2018-03-15T08:35:43.566Z,976.88
2018-03-15T08:36:43.558Z,976.89
2018-03-15T08:37:43.549Z,976.87
2018-03-15T08:38:43.544Z,976.83
2018-03-15T08:39:43.535Z,976.81
2018-03-15T08:40:43.538Z,976.83
2018-03-15T08:41:43.536Z,976.80
2018-03-15T08:42:43.515Z,976.80
2018-03-15T08:43:43.508Z,976.80
2018-03-15T08:44:43.500Z,976.79
2018-03-15T08:45:43.493Z,976.76
2018-03-15T08:46:43.486Z,976.74
2018-03-15T08:47:43.481Z,976.69
2018-03-15T08:48:43.472Z,976.71
2018-03-15T08:49:43.466Z,976.65
2018-03-15T08:50:43.507Z,976.63
2018-03-15T08:51:43.500Z,976.62
2018-03-15T08:52:43.446Z,976.55
2018-03-15T08:53:43.436Z,976.56
2018-03-15T08:54:43.430Z,976.52
2018-03-15T08:55:43.426Z,976.50
2018-03-15T08:56:43.420Z,976.52
2018-03-15T08:57:43.407Z,976.45
2018-03-15T08:58:43.403Z,976.48
2018-03-15T08:59:43.399Z,976.50
2018-03-15T09:00:43.389Z,976.51
2018-03-15T09:01:43.382Z,976.54
2018-03-15T09:02:43.373Z,976.50
2018-03-15T09:03:43.366Z,976.52
2018-03-15T09:04:43.398Z,976.42
2018-03-15T09:05:43.354Z,976.44
2018-03-15T09:06:43.349Z,976.37
2018-03-15T09:07:43.348Z,976.40
2018-03-15T09:08:43.343Z,976.38
2018-03-15T09:09:43.328Z,976.38
2018-03-15T09:10:43.322Z,976.36
2018-03-15T09:11:43.310Z,976.37
2018-03-15T09:12:43.304Z,976.33
2018-03-15T09:13:43.304Z,976.38
2018-03-15T09:14:43.291Z,976.29
2018-03-15T09:15:43.287Z,976.21
2018-03-15T09:16:43.281Z,976.18
2018-03-15T09:17:43.270Z,976.20
2018-03-15T09:18:43.261Z,976.20
2018-03-15T09:19:43.258Z,976.16
2018-03-15T09:20:43.255Z,976.18
2018-03-15T09:21:43.254Z,976.15
2018-03-15T09:22:43.236Z,976.12
2018-03-15T09:23:43.228Z,976.08
2018-03-15T09:24:43.223Z,976.12
2018-03-15T09:25:43.214Z,975.99
2018-03-15T09:26:43.209Z,976.03
2018-03-15T09:27:43.205Z,976.03
2018-03-15T09:28:43.195Z,975.99
2018-03-15T09:29:43.188Z,975.98
2018-03-15T09:30:43.182Z,975.94
2018-03-15T09:31:43.173Z,975.96
2018-03-15T09:32:43.166Z,975.92
2018-03-15T09:33:43.160Z,975.97
2018-03-15T09:34:43.155Z,975.94
2018-03-15T09:35:43.148Z,975.91
2018-03-15T09:36:43.140Z,975.89
2018-03-15T09:37:43.133Z,975.84
2018-03-15T09:38:43.127Z,975.82
2018-03-15T09:39:43.117Z,975.81
2018-03-15T09:40:43.111Z,975.89
2018-03-15T09:41:43.108Z,975.79
2018-03-15T09:42:43.099Z,975.85
2018-03-15T09:43:43.092Z,975.84
2018-03-15T09:44:43.086Z,975.79
2018-03-15T09:45:43.117Z,975.78
2018-03-15T09:46:43.070Z,975.75
2018-03-15T09:47:43.064Z,975.80
2018-03-15T09:48:43.058Z,975.85
2018-03-15T09:49:43.050Z,975.73
2018-03-15T09:50:43.044Z,975.71
2018-03-15T09:51:43.039Z,975.76
2018-03-15T09:52:43.031Z,975.74
2018-03-15T09:53:43.023Z,975.70
2018-03-15T09:54:43.016Z,975.72
2018-03-15T09:55:43.008Z,975.69
2018-03-15T09:56:43.003Z,975.68
2018-03-15T09:57:42.996Z,975.70
2018-03-15T09:58:42.991Z,975.72
2018-03-15T09:59:42.981Z,975.75
2018-03-15T10:00:42.981Z,975.70
2018-03-15T10:01:42.967Z,975.71
2018-03-15T10:02:42.963Z,975.68
2018-03-15T10:03:42.955Z,975.67
2018-03-15T10:04:42.952Z,975.71
2018-03-15T10:05:42.960Z,975.63
2018-03-15T10:06:42.935Z,975.67
2018-03-15T10:07:42.924Z,975.72
2018-03-15T10:08:42.920Z,975.69
2018-03-15T10:09:42.914Z,975.62
2018-03-15T10:10:42.906Z,975.59
2018-03-15T10:11:42.902Z,975.57
2018-03-15T10:12:42.893Z,975.51
2018-03-15T10:13:42.885Z,975.49
2018-03-15T10:14:42.882Z,975.43
2018-03-15T10:15:42.874Z,975.34
2018-03-15T10:16:42.866Z,975.39
2018-03-15T10:17:42.860Z,975.37
2018-03-15T10:18:42.857Z,975.46
2018-03-15T10:19:42.846Z,975.38
2018-03-15T10:20:42.840Z,975.38
2018-03-15T10:21:42.828Z,975.34
2018-03-15T10:22:42.824Z,975.34
2018-03-15T10:23:42.819Z,975.43
2018-03-15T10:24:42.818Z,975.41
2018-03-15T10:25:42.805Z,975.47
2018-03-15T10:26:42.798Z,975.46
2018-03-15T10:27:42.792Z,975.46
2018-03-15T10:28:42.783Z,975.49
2018-03-15T10:29:42.781Z,975.44
2018-03-15T10:30:42.776Z,975.39
2018-03-15T10:31:42.772Z,975.46
2018-03-15T10:32:42.758Z,975.38
2018-03-15T10:33:42.751Z,975.34
2018-03-15T10:34:42.748Z,975.35
2018-03-15T10:35:42.738Z,975.42
2018-03-15T10:36:42.732Z,975.40
2018-03-15T10:37:42.721Z,975.42
2018-03-15T10:38:42.723Z,975.45
2018-03-15T10:39:42.711Z,975.38
2018-03-15T10:40:42.705Z,975.38
2018-03-15T10:41:42.698Z,975.43
2018-03-15T10:42:42.691Z,975.41
2018-03-15T10:43:42.698Z,975.41
2018-03-15T10:44:42.680Z,975.41
2018-03-15T10:45:42.675Z,975.46
2018-03-15T10:46:42.665Z,975.39
2018-03-15T10:47:42.662Z,975.39
2018-03-15T10:48:42.653Z,975.38
2018-03-15T10:49:42.650Z,975.32
2018-03-15T10:50:42.636Z,975.27
2018-03-15T10:51:42.633Z,975.25
2018-03-15T10:52:42.631Z,975.17
2018-03-15T10:53:42.623Z,975.17
2018-03-15T10:54:42.613Z,975.06
2018-03-15T10:55:42.606Z,975.10
2018-03-15T10:56:42.603Z,975.13
2018-03-15T10:57:42.592Z,975.18
2018-03-15T10:58:42.588Z,975.17
2018-03-15T10:59:42.578Z,975.18
2018-03-15T11:00:42.579Z,975.14
2018-03-15T11:01:42.566Z,975.11
2018-03-15T11:02:42.565Z,975.10
2018-03-15T11:03:42.553Z,975.04
2018-03-15T11:04:42.560Z,975.00
2018-03-15T11:05:42.539Z,975.05
2018-03-15T11:06:42.532Z,974.96
2018-03-15T11:07:42.531Z,974.86
2018-03-15T11:08:42.518Z,974.87
2018-03-15T11:09:42.512Z,974.83
2018-03-15T11:10:42.506Z,974.77
2018-03-15T11:11:42.503Z,974.84
2018-03-15T11:12:42.497Z,974.78
2018-03-15T11:13:42.486Z,974.72
2018-03-15T11:14:42.477Z,974.73
2018-03-15T11:15:42.476Z,974.65
2018-03-15T11:16:42.469Z,974.71
2018-03-15T11:17:42.458Z,974.65
2018-03-15T11:18:42.452Z,974.62
2018-03-15T11:19:42.446Z,974.70
2018-03-15T11:20:42.439Z,974.67
2018-03-15T11:21:42.431Z,974.59
2018-03-15T11:22:42.430Z,974.69
2018-03-15T11:23:42.476Z,974.64
2018-03-15T11:24:42.411Z,974.67
2018-03-15T11:25:42.405Z,974.58
2018-03-15T11:26:42.398Z,974.65
2018-03-15T11:27:42.391Z,974.77
2018-03-15T11:28:42.383Z,974.72
2018-03-15T11:29:42.387Z,974.76
2018-03-15T11:30:42.374Z,974.75
2018-03-15T11:31:42.364Z,974.76
2018-03-15T11:32:42.356Z,974.79
2018-03-15T11:33:42.349Z,974.74
2018-03-15T11:34:42.343Z,974.87
2018-03-15T11:35:42.337Z,974.82
2018-03-15T11:36:42.332Z,974.81
2018-03-15T11:37:42.321Z,974.80
2018-03-15T11:38:42.319Z,974.86
2018-03-15T11:39:42.308Z,974.76
2018-03-15T11:40:42.305Z,974.79
2018-03-15T11:41:42.295Z,974.77
2018-03-15T11:42:42.288Z,974.76
2018-03-15T11:43:42.340Z,974.71
2018-03-15T11:44:42.276Z,974.68
2018-03-15T11:45:42.267Z,974.74
2018-03-15T11:46:42.262Z,974.72
2018-03-15T11:47:42.255Z,974.71
2018-03-15T11:48:42.248Z,974.70
2018-03-15T11:49:42.242Z,974.71
2018-03-15T11:50:42.271Z,974.71
2018-03-15T11:51:42.227Z,974.71
2018-03-15T11:52:42.220Z,974.68
2018-03-15T11:53:42.215Z,974.64
2018-03-15T11:54:42.212Z,974.61
2018-03-15T11:55:42.201Z,974.53
2018-03-15T11:56:42.194Z,974.48
2018-03-15T11:57:42.194Z,974.54
2018-03-15T11:58:42.181Z,974.44
2018-03-15T11:59:42.178Z,974.47
2018-03-15T12:00:42.178Z,974.56
2018-03-15T12:01:42.225Z,974.53
2018-03-15T12:02:42.149Z,974.52
2018-03-15T12:03:42.145Z,974.57
2018-03-15T12:04:42.158Z,974.58
2018-03-15T12:05:42.140Z,974.61
2018-03-15T12:06:42.125Z,974.61
2018-03-15T12:07:42.192Z,974.58
2018-03-15T12:08:42.112Z,974.55
2018-03-15T12:09:42.103Z,974.57
2018-03-15T12:10:42.108Z,974.57
2018-03-15T12:11:42.090Z,974.50
2018-03-15T12:12:42.119Z,974.46
2018-03-15T12:13:42.086Z,974.46
2018-03-15T12:14:42.069Z,974.46
2018-03-15T12:15:42.065Z,974.44
2018-03-15T12:16:42.054Z,974.47
2018-03-15T12:17:42.048Z,974.43
2018-03-15T12:18:42.224Z,974.44
2018-03-15T12:19:42.035Z,974.45
2018-03-15T12:20:42.029Z,974.37
2018-03-15T12:21:42.031Z,974.37
2018-03-15T12:22:42.014Z,974.36
2018-03-15T12:23:42.008Z,974.29
2018-03-15T12:24:42.018Z,974.28
2018-03-15T12:25:41.995Z,974.27
2018-03-15T12:26:41.987Z,974.26
2018-03-15T12:27:41.985Z,974.26
2018-03-15T12:28:41.996Z,974.17